sensor_id;sensor_type;location;lat;lon;timestamp;P1;durP1;ratioP1;P2;durP2;ratioP2
23866;SDS011;12114;53.404;-1.502;2023-04-24T00:00:37;8.25;;;1.70;;
23866;SDS011;12114;53.404;-1.502;2023-04-24T00:03:24;6.85;;;2.08;;
23866;SDS011;12114;53.404;-1.502;2023-04-24T00:06:08;5.75;;;1.77;;
23866;SDS011;12114;53.404;-1.502;2023-04-24T00:08:52;6.30;;;1.85;;
23866;SDS011;12114;53.404;-1.502;2023-04-24T00:11:36;4.68;;;1.50;;
23866;SDS011;12114;53.404;-1.502;2023-04-24T00:14:19;8.45;;;2.00;;
23866;SDS011;12114;53.404;-1.502;2023-04-24T00:17:04;8.05;;;2.33;;
23866;SDS011;12114;53.404;-1.502;2023-04-24T00:19:48;8.98;;;2.15;;
23866;SDS011;12114;53.404;-1.502;2023-04-24T00:22:35;8.90;;;1.88;;
23866;SDS011;12114;53.404;-1.502;2023-04-24T00:25:19;8.68;;;1.63;;
23866;SDS011;12114;53.404;-1.502;2023-04-24T00:28:03;7.03;;;2.08;;
23866;SDS011;12114;53.404;-1.502;2023-04-24T00:30:47;7.07;;;1.70;;
23866;SDS011;12114;53.404;-1.502;2023-04-24T00:33:31;6.18;;;1.83;;
23866;SDS011;12114;53.404;-1.502;2023-04-24T00:36:15;7.75;;;2.38;;
23866;SDS011;12114;53.404;-1.502;2023-04-24T00:38:59;10.00;;;1.70;;
23866;SDS011;12114;53.404;-1.502;2023-04-24T00:41:43;10.15;;;2.15;;
23866;SDS011;12114;53.404;-1.502;2023-04-24T00:44:29;6.47;;;1.65;;
23866;SDS011;12114;53.404;-1.502;2023-04-24T00:47:13;6.57;;;1.60;;
23866;SDS011;12114;53.404;-1.502;2023-04-24T00:49:57;6.88;;;1.65;;
23866;SDS011;12114;53.404;-1.502;2023-04-24T00:52:41;6.85;;;1.80;;
23866;SDS011;12114;53.404;-1.502;2023-04-24T00:55:25;5.25;;;1.63;;
23866;SDS011;12114;53.404;-1.502;2023-04-24T00:58:09;7.70;;;1.67;;
23866;SDS011;12114;53.404;-1.502;2023-04-24T01:00:54;6.18;;;1.30;;
23866;SDS011;12114;53.404;-1.502;2023-04-24T01:03:38;6.97;;;1.50;;
23866;SDS011;12114;53.404;-1.502;2023-04-24T01:06:23;6.35;;;1.60;;
23866;SDS011;12114;53.404;-1.502;2023-04-24T01:09:07;7.70;;;1.80;;
23866;SDS011;12114;53.404;-1.502;2023-04-24T01:11:54;6.85;;;1.58;;
23866;SDS011;12114;53.404;-1.502;2023-04-24T01:14:38;5.03;;;1.38;;
23866;SDS011;12114;53.404;-1.502;2023-04-24T01:17:22;6.88;;;1.67;;
23866;SDS011;12114;53.404;-1.502;2023-04-24T01:20:05;5.47;;;1.63;;
23866;SDS011;12114;53.404;-1.502;2023-04-24T01:22:50;4.22;;;1.00;;
23866;SDS011;12114;53.404;-1.502;2023-04-24T01:25:34;6.40;;;1.40;;
23866;SDS011;12114;53.404;-1.502;2023-04-24T01:28:18;5.15;;;1.20;;
23866;SDS011;12114;53.404;-1.502;2023-04-24T01:31:02;4.40;;;1.40;;
23866;SDS011;12114;53.404;-1.502;2023-04-24T01:33:46;7.10;;;1.60;;
23866;SDS011;12114;53.404;-1.502;2023-04-24T01:36:31;6.30;;;1.48;;
23866;SDS011;12114;53.404;-1.502;2023-04-24T01:39:16;5.23;;;1.10;;
23866;SDS011;12114;53.404;-1.502;2023-04-24T01:42:00;6.55;;;1.40;;
23866;SDS011;12114;53.404;-1.502;2023-04-24T01:44:45;5.95;;;1.20;;
23866;SDS011;12114;53.404;-1.502;2023-04-24T01:47:29;4.80;;;1.20;;
23866;SDS011;12114;53.404;-1.502;2023-04-24T01:50:13;4.35;;;1.23;;
23866;SDS011;12114;53.404;-1.502;2023-04-24T01:52:57;4.25;;;1.40;;
23866;SDS011;12114;53.404;-1.502;2023-04-24T01:55:41;6.13;;;1.13;;
23866;SDS011;12114;53.404;-1.502;2023-04-24T01:58:26;3.47;;;1.13;;
23866;SDS011;12114;53.404;-1.502;2023-04-24T02:01:14;3.22;;;1.25;;
23866;SDS011;12114;53.404;-1.502;2023-04-24T02:03:59;5.55;;;1.55;;
23866;SDS011;12114;53.404;-1.502;2023-04-24T02:06:42;2.60;;;1.17;;
23866;SDS011;12114;53.404;-1.502;2023-04-24T02:09:26;4.90;;;1.27;;
23866;SDS011;12114;53.404;-1.502;2023-04-24T02:12:10;7.07;;;1.20;;
23866;SDS011;12114;53.404;-1.502;2023-04-24T02:14:54;5.50;;;1.13;;
23866;SDS011;12114;53.404;-1.502;2023-04-24T02:17:38;6.10;;;1.17;;
23866;SDS011;12114;53.404;-1.502;2023-04-24T02:20:22;6.75;;;1.30;;
23866;SDS011;12114;53.404;-1.502;2023-04-24T02:23:06;9.80;;;1.60;;
23866;SDS011;12114;53.404;-1.502;2023-04-24T02:25:50;7.05;;;1.13;;
23866;SDS011;12114;53.404;-1.502;2023-04-24T02:28:34;4.00;;;1.10;;
23866;SDS011;12114;53.404;-1.502;2023-04-24T02:31:18;6.85;;;1.75;;
23866;SDS011;12114;53.404;-1.502;2023-04-24T02:34:02;6.85;;;1.50;;
23866;SDS011;12114;53.404;-1.502;2023-04-24T02:36:46;5.53;;;1.27;;
23866;SDS011;12114;53.404;-1.502;2023-04-24T02:39:30;5.03;;;1.25;;
23866;SDS011;12114;53.404;-1.502;2023-04-24T02:42:14;4.50;;;1.20;;
23866;SDS011;12114;53.404;-1.502;2023-04-24T02:44:58;6.63;;;1.55;;
23866;SDS011;12114;53.404;-1.502;2023-04-24T02:47:41;6.97;;;1.38;;
23866;SDS011;12114;53.404;-1.502;2023-04-24T02:50:26;6.80;;;1.13;;
23866;SDS011;12114;53.404;-1.502;2023-04-24T02:53:10;3.70;;;1.20;;
23866;SDS011;12114;53.404;-1.502;2023-04-24T02:55:53;7.80;;;1.73;;
23866;SDS011;12114;53.404;-1.502;2023-04-24T02:58:40;5.82;;;1.88;;
23866;SDS011;12114;53.404;-1.502;2023-04-24T03:01:25;6.63;;;1.60;;
23866;SDS011;12114;53.404;-1.502;2023-04-24T03:04:09;6.80;;;1.48;;
23866;SDS011;12114;53.404;-1.502;2023-04-24T03:06:54;3.65;;;1.13;;
23866;SDS011;12114;53.404;-1.502;2023-04-24T03:09:38;10.50;;;1.50;;
23866;SDS011;12114;53.404;-1.502;2023-04-24T03:12:22;10.00;;;1.83;;
23866;SDS011;12114;53.404;-1.502;2023-04-24T03:15:07;8.48;;;1.55;;
23866;SDS011;12114;53.404;-1.502;2023-04-24T03:17:52;6.93;;;1.30;;
23866;SDS011;12114;53.404;-1.502;2023-04-24T03:20:36;7.72;;;1.75;;
23866;SDS011;12114;53.404;-1.502;2023-04-24T03:23:21;9.75;;;1.45;;
23866;SDS011;12114;53.404;-1.502;2023-04-24T03:26:04;5.82;;;1.33;;
23866;SDS011;12114;53.404;-1.502;2023-04-24T03:28:48;5.22;;;1.52;;
23866;SDS011;12114;53.404;-1.502;2023-04-24T03:31:32;5.97;;;1.23;;
23866;SDS011;12114;53.404;-1.502;2023-04-24T03:34:16;11.38;;;1.95;;
23866;SDS011;12114;53.404;-1.502;2023-04-24T03:37:00;5.18;;;1.45;;
23866;SDS011;12114;53.404;-1.502;2023-04-24T03:39:44;8.32;;;1.35;;
23866;SDS011;12114;53.404;-1.502;2023-04-24T03:42:28;7.90;;;1.50;;
23866;SDS011;12114;53.404;-1.502;2023-04-24T03:45:12;8.02;;;1.65;;
23866;SDS011;12114;53.404;-1.502;2023-04-24T03:47:56;7.82;;;1.40;;
23866;SDS011;12114;53.404;-1.502;2023-04-24T03:50:41;6.20;;;1.35;;
23866;SDS011;12114;53.404;-1.502;2023-04-24T03:53:24;6.07;;;1.55;;
23866;SDS011;12114;53.404;-1.502;2023-04-24T03:56:09;6.40;;;1.40;;
23866;SDS011;12114;53.404;-1.502;2023-04-24T03:58:53;5.03;;;1.42;;
23866;SDS011;12114;53.404;-1.502;2023-04-24T04:01:37;6.10;;;1.50;;
23866;SDS011;12114;53.404;-1.502;2023-04-24T04:04:21;8.95;;;1.42;;
23866;SDS011;12114;53.404;-1.502;2023-04-24T04:07:05;5.72;;;1.25;;
23866;SDS011;12114;53.404;-1.502;2023-04-24T04:09:49;4.85;;;1.23;;
23866;SDS011;12114;53.404;-1.502;2023-04-24T04:12:33;5.28;;;1.35;;
23866;SDS011;12114;53.404;-1.502;2023-04-24T04:15:17;6.88;;;1.30;;
23866;SDS011;12114;53.404;-1.502;2023-04-24T04:18:01;5.78;;;1.63;;
23866;SDS011;12114;53.404;-1.502;2023-04-24T04:20:45;6.50;;;1.98;;
23866;SDS011;12114;53.404;-1.502;2023-04-24T04:23:29;6.47;;;1.30;;
23866;SDS011;12114;53.404;-1.502;2023-04-24T04:26:13;5.82;;;1.65;;
23866;SDS011;12114;53.404;-1.502;2023-04-24T04:28:58;6.65;;;1.75;;
23866;SDS011;12114;53.404;-1.502;2023-04-24T04:31:42;4.88;;;1.70;;
23866;SDS011;12114;53.404;-1.502;2023-04-24T04:34:26;9.07;;;1.85;;
23866;SDS011;12114;53.404;-1.502;2023-04-24T04:37:10;5.57;;;1.70;;
23866;SDS011;12114;53.404;-1.502;2023-04-24T04:39:54;6.22;;;1.33;;
23866;SDS011;12114;53.404;-1.502;2023-04-24T04:42:39;5.53;;;1.70;;
23866;SDS011;12114;53.404;-1.502;2023-04-24T04:45:24;4.03;;;1.38;;
23866;SDS011;12114;53.404;-1.502;2023-04-24T04:48:08;9.77;;;2.03;;
23866;SDS011;12114;53.404;-1.502;2023-04-24T04:50:52;7.90;;;1.88;;
23866;SDS011;12114;53.404;-1.502;2023-04-24T04:53:36;5.60;;;1.30;;
23866;SDS011;12114;53.404;-1.502;2023-04-24T04:56:20;6.25;;;1.50;;
23866;SDS011;12114;53.404;-1.502;2023-04-24T04:59:05;7.95;;;1.45;;
23866;SDS011;12114;53.404;-1.502;2023-04-24T05:01:49;7.60;;;1.48;;
23866;SDS011;12114;53.404;-1.502;2023-04-24T05:04:33;6.75;;;1.40;;
23866;SDS011;12114;53.404;-1.502;2023-04-24T05:07:17;5.80;;;1.48;;
23866;SDS011;12114;53.404;-1.502;2023-04-24T05:10:02;10.63;;;1.92;;
23866;SDS011;12114;53.404;-1.502;2023-04-24T05:12:46;5.22;;;1.45;;
23866;SDS011;12114;53.404;-1.502;2023-04-24T05:15:30;6.97;;;1.52;;
23866;SDS011;12114;53.404;-1.502;2023-04-24T05:18:14;8.23;;;1.25;;
23866;SDS011;12114;53.404;-1.502;2023-04-24T05:20:59;3.40;;;1.10;;
23866;SDS011;12114;53.404;-1.502;2023-04-24T05:23:43;8.82;;;1.92;;
23866;SDS011;12114;53.404;-1.502;2023-04-24T05:26:27;3.72;;;1.38;;
23866;SDS011;12114;53.404;-1.502;2023-04-24T05:29:10;8.57;;;1.85;;
23866;SDS011;12114;53.404;-1.502;2023-04-24T05:31:55;6.13;;;1.63;;
23866;SDS011;12114;53.404;-1.502;2023-04-24T05:34:39;6.93;;;1.92;;
23866;SDS011;12114;53.404;-1.502;2023-04-24T05:37:23;6.10;;;1.70;;
23866;SDS011;12114;53.404;-1.502;2023-04-24T05:40:07;8.57;;;1.77;;
23866;SDS011;12114;53.404;-1.502;2023-04-24T05:42:52;8.23;;;1.58;;
23866;SDS011;12114;53.404;-1.502;2023-04-24T05:45:36;6.85;;;1.48;;
23866;SDS011;12114;53.404;-1.502;2023-04-24T05:48:20;5.05;;;1.63;;
23866;SDS011;12114;53.404;-1.502;2023-04-24T05:51:06;7.45;;;1.80;;
23866;SDS011;12114;53.404;-1.502;2023-04-24T05:53:50;7.68;;;2.03;;
23866;SDS011;12114;53.404;-1.502;2023-04-24T05:56:34;8.38;;;1.95;;
23866;SDS011;12114;53.404;-1.502;2023-04-24T05:59:18;7.30;;;1.45;;
23866;SDS011;12114;53.404;-1.502;2023-04-24T06:02:02;6.72;;;1.77;;
23866;SDS011;12114;53.404;-1.502;2023-04-24T06:04:46;7.75;;;1.52;;
23866;SDS011;12114;53.404;-1.502;2023-04-24T06:07:30;5.43;;;1.58;;
23866;SDS011;12114;53.404;-1.502;2023-04-24T06:10:15;13.43;;;2.33;;
23866;SDS011;12114;53.404;-1.502;2023-04-24T06:12:59;9.88;;;1.80;;
23866;SDS011;12114;53.404;-1.502;2023-04-24T06:15:44;9.07;;;1.90;;
23866;SDS011;12114;53.404;-1.502;2023-04-24T06:18:28;13.18;;;2.33;;
23866;SDS011;12114;53.404;-1.502;2023-04-24T06:21:12;6.70;;;1.77;;
23866;SDS011;12114;53.404;-1.502;2023-04-24T06:23:56;11.30;;;2.15;;
23866;SDS011;12114;53.404;-1.502;2023-04-24T06:26:40;7.63;;;2.25;;
23866;SDS011;12114;53.404;-1.502;2023-04-24T06:29:24;13.00;;;2.33;;
23866;SDS011;12114;53.404;-1.502;2023-04-24T06:32:08;13.57;;;2.13;;
23866;SDS011;12114;53.404;-1.502;2023-04-24T06:34:52;15.15;;;2.85;;
23866;SDS011;12114;53.404;-1.502;2023-04-24T06:37:36;13.52;;;2.38;;
23866;SDS011;12114;53.404;-1.502;2023-04-24T06:40:20;10.45;;;2.25;;
23866;SDS011;12114;53.404;-1.502;2023-04-24T06:43:04;10.55;;;2.58;;
23866;SDS011;12114;53.404;-1.502;2023-04-24T06:45:49;13.43;;;2.78;;
23866;SDS011;12114;53.404;-1.502;2023-04-24T06:48:33;10.30;;;2.17;;
23866;SDS011;12114;53.404;-1.502;2023-04-24T06:51:17;14.00;;;3.10;;
23866;SDS011;12114;53.404;-1.502;2023-04-24T06:54:01;11.75;;;2.90;;
23866;SDS011;12114;53.404;-1.502;2023-04-24T06:56:45;14.48;;;2.78;;
23866;SDS011;12114;53.404;-1.502;2023-04-24T06:59:31;10.98;;;2.30;;
23866;SDS011;12114;53.404;-1.502;2023-04-24T07:02:15;16.45;;;3.00;;
23866;SDS011;12114;53.404;-1.502;2023-04-24T07:04:59;16.63;;;2.50;;
23866;SDS011;12114;53.404;-1.502;2023-04-24T07:07:45;9.55;;;2.65;;
23866;SDS011;12114;53.404;-1.502;2023-04-24T07:10:30;17.83;;;3.43;;
23866;SDS011;12114;53.404;-1.502;2023-04-24T07:13:14;12.65;;;2.90;;
23866;SDS011;12114;53.404;-1.502;2023-04-24T07:15:58;13.80;;;2.75;;
23866;SDS011;12114;53.404;-1.502;2023-04-24T07:18:42;19.25;;;3.40;;
23866;SDS011;12114;53.404;-1.502;2023-04-24T07:21:26;16.90;;;3.47;;
23866;SDS011;12114;53.404;-1.502;2023-04-24T07:24:11;11.13;;;2.67;;
23866;SDS011;12114;53.404;-1.502;2023-04-24T07:26:56;11.80;;;3.92;;
23866;SDS011;12114;53.404;-1.502;2023-04-24T07:29:40;12.82;;;2.90;;
23866;SDS011;12114;53.404;-1.502;2023-04-24T07:32:24;13.65;;;3.08;;
23866;SDS011;12114;53.404;-1.502;2023-04-24T07:35:08;11.23;;;2.72;;
23866;SDS011;12114;53.404;-1.502;2023-04-24T07:37:53;12.90;;;2.70;;
23866;SDS011;12114;53.404;-1.502;2023-04-24T07:40:37;13.77;;;2.88;;
23866;SDS011;12114;53.404;-1.502;2023-04-24T07:43:21;12.43;;;2.80;;
23866;SDS011;12114;53.404;-1.502;2023-04-24T07:46:06;12.80;;;2.83;;
23866;SDS011;12114;53.404;-1.502;2023-04-24T07:48:50;9.90;;;3.05;;
23866;SDS011;12114;53.404;-1.502;2023-04-24T07:51:34;13.20;;;3.00;;
23866;SDS011;12114;53.404;-1.502;2023-04-24T07:54:21;10.07;;;2.13;;
23866;SDS011;12114;53.404;-1.502;2023-04-24T07:57:05;13.30;;;3.00;;
23866;SDS011;12114;53.404;-1.502;2023-04-24T07:59:50;12.70;;;2.63;;
23866;SDS011;12114;53.404;-1.502;2023-04-24T08:02:34;15.07;;;2.70;;
23866;SDS011;12114;53.404;-1.502;2023-04-24T08:05:18;12.88;;;3.40;;
23866;SDS011;12114;53.404;-1.502;2023-04-24T08:08:02;18.67;;;3.38;;
23866;SDS011;12114;53.404;-1.502;2023-04-24T08:10:46;16.40;;;3.00;;
23866;SDS011;12114;53.404;-1.502;2023-04-24T08:13:30;15.10;;;3.38;;
23866;SDS011;12114;53.404;-1.502;2023-04-24T08:16:14;14.02;;;3.22;;
23866;SDS011;12114;53.404;-1.502;2023-04-24T08:18:58;19.77;;;3.33;;
23866;SDS011;12114;53.404;-1.502;2023-04-24T08:21:42;15.23;;;3.20;;
23866;SDS011;12114;53.404;-1.502;2023-04-24T08:24:26;12.40;;;3.25;;
23866;SDS011;12114;53.404;-1.502;2023-04-24T08:27:10;12.65;;;2.55;;
23866;SDS011;12114;53.404;-1.502;2023-04-24T08:29:54;9.50;;;2.80;;
23866;SDS011;12114;53.404;-1.502;2023-04-24T08:32:39;10.90;;;2.83;;
23866;SDS011;12114;53.404;-1.502;2023-04-24T08:35:23;13.10;;;2.67;;
23866;SDS011;12114;53.404;-1.502;2023-04-24T08:38:06;14.70;;;3.00;;
23866;SDS011;12114;53.404;-1.502;2023-04-24T08:40:50;16.17;;;2.83;;
23866;SDS011;12114;53.404;-1.502;2023-04-24T08:43:34;10.40;;;2.47;;
23866;SDS011;12114;53.404;-1.502;2023-04-24T08:46:20;11.80;;;2.58;;
23866;SDS011;12114;53.404;-1.502;2023-04-24T08:49:04;11.30;;;3.13;;
23866;SDS011;12114;53.404;-1.502;2023-04-24T08:51:48;10.45;;;2.72;;
23866;SDS011;12114;53.404;-1.502;2023-04-24T08:54:34;12.07;;;2.67;;
23866;SDS011;12114;53.404;-1.502;2023-04-24T08:57:18;16.65;;;3.17;;
23866;SDS011;12114;53.404;-1.502;2023-04-24T09:00:02;9.95;;;2.70;;
23866;SDS011;12114;53.404;-1.502;2023-04-24T09:02:47;10.02;;;3.17;;
23866;SDS011;12114;53.404;-1.502;2023-04-24T09:05:32;13.65;;;2.83;;
23866;SDS011;12114;53.404;-1.502;2023-04-24T09:08:17;12.98;;;2.75;;
23866;SDS011;12114;53.404;-1.502;2023-04-24T09:11:01;11.23;;;2.92;;
23866;SDS011;12114;53.404;-1.502;2023-04-24T09:13:47;15.38;;;2.80;;
23866;SDS011;12114;53.404;-1.502;2023-04-24T09:16:32;11.05;;;2.78;;
23866;SDS011;12114;53.404;-1.502;2023-04-24T09:19:16;21.52;;;3.67;;
23866;SDS011;12114;53.404;-1.502;2023-04-24T09:22:04;11.60;;;3.20;;
23866;SDS011;12114;53.404;-1.502;2023-04-24T09:24:48;14.88;;;3.10;;
23866;SDS011;12114;53.404;-1.502;2023-04-24T09:27:32;12.55;;;3.80;;
23866;SDS011;12114;53.404;-1.502;2023-04-24T09:30:21;13.48;;;3.03;;
23866;SDS011;12114;53.404;-1.502;2023-04-24T09:33:09;19.13;;;3.53;;
23866;SDS011;12114;53.404;-1.502;2023-04-24T09:35:53;13.20;;;3.22;;
23866;SDS011;12114;53.404;-1.502;2023-04-24T09:38:38;18.05;;;3.53;;
23866;SDS011;12114;53.404;-1.502;2023-04-24T09:41:22;19.50;;;3.67;;
23866;SDS011;12114;53.404;-1.502;2023-04-24T09:44:13;11.07;;;2.72;;
23866;SDS011;12114;53.404;-1.502;2023-04-24T09:46:58;16.58;;;3.08;;
23866;SDS011;12114;53.404;-1.502;2023-04-24T09:49:42;15.68;;;3.78;;
23866;SDS011;12114;53.404;-1.502;2023-04-24T09:52:27;13.38;;;3.20;;
23866;SDS011;12114;53.404;-1.502;2023-04-24T09:55:12;15.85;;;3.08;;
23866;SDS011;12114;53.404;-1.502;2023-04-24T09:58:00;12.55;;;3.42;;
23866;SDS011;12114;53.404;-1.502;2023-04-24T10:00:44;13.63;;;3.30;;
23866;SDS011;12114;53.404;-1.502;2023-04-24T10:03:30;16.17;;;2.95;;
23866;SDS011;12114;53.404;-1.502;2023-04-24T10:06:14;14.70;;;3.53;;
23866;SDS011;12114;53.404;-1.502;2023-04-24T10:08:59;10.15;;;2.58;;
23866;SDS011;12114;53.404;-1.502;2023-04-24T10:11:44;15.38;;;2.95;;
23866;SDS011;12114;53.404;-1.502;2023-04-24T10:14:29;11.48;;;3.15;;
23866;SDS011;12114;53.404;-1.502;2023-04-24T10:17:13;12.55;;;2.83;;
23866;SDS011;12114;53.404;-1.502;2023-04-24T10:19:57;10.25;;;2.67;;
23866;SDS011;12114;53.404;-1.502;2023-04-24T10:22:42;9.32;;;2.70;;
23866;SDS011;12114;53.404;-1.502;2023-04-24T10:25:27;16.77;;;3.00;;
23866;SDS011;12114;53.404;-1.502;2023-04-24T10:28:12;7.70;;;1.98;;
23866;SDS011;12114;53.404;-1.502;2023-04-24T10:30:56;12.88;;;2.83;;
23866;SDS011;12114;53.404;-1.502;2023-04-24T10:33:41;14.30;;;2.55;;
23866;SDS011;12114;53.404;-1.502;2023-04-24T10:36:25;9.40;;;2.97;;
23866;SDS011;12114;53.404;-1.502;2023-04-24T10:39:12;13.27;;;2.90;;
23866;SDS011;12114;53.404;-1.502;2023-04-24T10:41:58;7.63;;;2.38;;
23866;SDS011;12114;53.404;-1.502;2023-04-24T10:44:42;8.90;;;2.33;;
23866;SDS011;12114;53.404;-1.502;2023-04-24T10:47:26;12.93;;;2.88;;
23866;SDS011;12114;53.404;-1.502;2023-04-24T10:50:10;8.27;;;2.60;;
23866;SDS011;12114;53.404;-1.502;2023-04-24T10:53:04;9.40;;;2.22;;
23866;SDS011;12114;53.404;-1.502;2023-04-24T10:58:37;7.90;;;2.72;;
23866;SDS011;12114;53.404;-1.502;2023-04-24T11:01:29;11.60;;;2.72;;
23866;SDS011;12114;53.404;-1.502;2023-04-24T11:04:13;8.63;;;2.72;;
23866;SDS011;12114;53.404;-1.502;2023-04-24T11:06:57;9.30;;;2.92;;
23866;SDS011;12114;53.404;-1.502;2023-04-24T11:09:41;8.02;;;2.83;;
23866;SDS011;12114;53.404;-1.502;2023-04-24T11:12:26;13.60;;;3.33;;
23866;SDS011;12114;53.404;-1.502;2023-04-24T11:15:10;11.20;;;2.60;;
23866;SDS011;12114;53.404;-1.502;2023-04-24T11:17:54;11.75;;;2.53;;
23866;SDS011;12114;53.404;-1.502;2023-04-24T11:20:41;14.40;;;2.73;;
23866;SDS011;12114;53.404;-1.502;2023-04-24T11:23:25;11.18;;;2.88;;
23866;SDS011;12114;53.404;-1.502;2023-04-24T11:26:13;11.80;;;2.72;;
23866;SDS011;12114;53.404;-1.502;2023-04-24T11:29:07;8.98;;;2.40;;
23866;SDS011;12114;53.404;-1.502;2023-04-24T11:31:51;12.02;;;2.58;;
23866;SDS011;12114;53.404;-1.502;2023-04-24T11:34:35;12.02;;;2.92;;
23866;SDS011;12114;53.404;-1.502;2023-04-24T11:37:22;8.30;;;3.05;;
23866;SDS011;12114;53.404;-1.502;2023-04-24T11:40:08;16.48;;;2.95;;
23866;SDS011;12114;53.404;-1.502;2023-04-24T11:42:53;11.65;;;2.92;;
23866;SDS011;12114;53.404;-1.502;2023-04-24T11:45:47;10.18;;;2.83;;
23866;SDS011;12114;53.404;-1.502;2023-04-24T11:48:34;13.43;;;2.63;;
23866;SDS011;12114;53.404;-1.502;2023-04-24T11:51:20;8.82;;;2.45;;
23866;SDS011;12114;53.404;-1.502;2023-04-24T11:54:07;12.82;;;2.70;;
23866;SDS011;12114;53.404;-1.502;2023-04-24T11:56:51;10.10;;;2.15;;
23866;SDS011;12114;53.404;-1.502;2023-04-24T11:59:35;10.13;;;2.17;;
23866;SDS011;12114;53.404;-1.502;2023-04-24T12:02:23;8.23;;;2.30;;
23866;SDS011;12114;53.404;-1.502;2023-04-24T12:05:08;8.48;;;1.90;;
23866;SDS011;12114;53.404;-1.502;2023-04-24T12:07:52;6.13;;;1.88;;
23866;SDS011;12114;53.404;-1.502;2023-04-24T12:10:37;9.23;;;2.10;;
23866;SDS011;12114;53.404;-1.502;2023-04-24T12:13:21;10.82;;;1.92;;
23866;SDS011;12114;53.404;-1.502;2023-04-24T12:16:04;9.45;;;2.10;;
23866;SDS011;12114;53.404;-1.502;2023-04-24T12:18:50;8.90;;;2.10;;
23866;SDS011;12114;53.404;-1.502;2023-04-24T12:21:34;7.97;;;2.17;;
23866;SDS011;12114;53.404;-1.502;2023-04-24T12:24:18;7.70;;;2.13;;
23866;SDS011;12114;53.404;-1.502;2023-04-24T12:27:02;6.53;;;1.90;;
23866;SDS011;12114;53.404;-1.502;2023-04-24T12:29:53;9.55;;;2.53;;
23866;SDS011;12114;53.404;-1.502;2023-04-24T12:32:41;6.93;;;1.98;;
23866;SDS011;12114;53.404;-1.502;2023-04-24T12:35:30;6.00;;;1.52;;
23866;SDS011;12114;53.404;-1.502;2023-04-24T12:38:15;6.28;;;1.80;;
23866;SDS011;12114;53.404;-1.502;2023-04-24T12:41:03;10.13;;;2.15;;
23866;SDS011;12114;53.404;-1.502;2023-04-24T12:43:51;5.20;;;1.70;;
23866;SDS011;12114;53.404;-1.502;2023-04-24T12:46:35;8.00;;;1.67;;
23866;SDS011;12114;53.404;-1.502;2023-04-24T12:49:19;5.75;;;1.90;;
23866;SDS011;12114;53.404;-1.502;2023-04-24T12:52:03;12.25;;;1.95;;
23866;SDS011;12114;53.404;-1.502;2023-04-24T12:54:47;7.07;;;1.80;;
23866;SDS011;12114;53.404;-1.502;2023-04-24T12:57:31;9.00;;;1.83;;
23866;SDS011;12114;53.404;-1.502;2023-04-24T13:00:15;7.18;;;1.80;;
23866;SDS011;12114;53.404;-1.502;2023-04-24T13:02:59;9.23;;;1.80;;
23866;SDS011;12114;53.404;-1.502;2023-04-24T13:05:43;13.23;;;5.57;;
23866;SDS011;12114;53.404;-1.502;2023-04-24T13:08:26;10.00;;;2.13;;
23866;SDS011;12114;53.404;-1.502;2023-04-24T13:11:10;7.32;;;2.22;;
23866;SDS011;12114;53.404;-1.502;2023-04-24T13:13:54;7.43;;;1.92;;
23866;SDS011;12114;53.404;-1.502;2023-04-24T13:16:38;6.93;;;2.05;;
23866;SDS011;12114;53.404;-1.502;2023-04-24T13:19:24;9.68;;;2.17;;
23866;SDS011;12114;53.404;-1.502;2023-04-24T13:22:09;9.82;;;2.20;;
23866;SDS011;12114;53.404;-1.502;2023-04-24T13:24:53;11.10;;;2.25;;
23866;SDS011;12114;53.404;-1.502;2023-04-24T13:27:40;6.85;;;1.75;;
23866;SDS011;12114;53.404;-1.502;2023-04-24T13:30:24;7.47;;;1.88;;
23866;SDS011;12114;53.404;-1.502;2023-04-24T13:33:08;15.82;;;2.60;;
23866;SDS011;12114;53.404;-1.502;2023-04-24T13:35:52;7.55;;;2.20;;
23866;SDS011;12114;53.404;-1.502;2023-04-24T13:38:35;11.18;;;2.15;;
23866;SDS011;12114;53.404;-1.502;2023-04-24T13:41:19;10.68;;;2.50;;
23866;SDS011;12114;53.404;-1.502;2023-04-24T13:44:04;8.00;;;2.17;;
23866;SDS011;12114;53.404;-1.502;2023-04-24T13:46:48;8.55;;;2.00;;
23866;SDS011;12114;53.404;-1.502;2023-04-24T13:49:32;11.23;;;2.53;;
23866;SDS011;12114;53.404;-1.502;2023-04-24T13:52:16;10.43;;;2.33;;
23866;SDS011;12114;53.404;-1.502;2023-04-24T13:55:00;11.27;;;2.33;;
23866;SDS011;12114;53.404;-1.502;2023-04-24T13:57:44;11.45;;;2.95;;
23866;SDS011;12114;53.404;-1.502;2023-04-24T14:00:28;8.60;;;2.95;;
23866;SDS011;12114;53.404;-1.502;2023-04-24T14:03:12;10.77;;;2.60;;
23866;SDS011;12114;53.404;-1.502;2023-04-24T14:05:56;15.95;;;2.70;;
23866;SDS011;12114;53.404;-1.502;2023-04-24T14:08:40;13.30;;;2.95;;
23866;SDS011;12114;53.404;-1.502;2023-04-24T14:11:24;12.05;;;4.38;;
23866;SDS011;12114;53.404;-1.502;2023-04-24T14:14:10;15.60;;;3.53;;
23866;SDS011;12114;53.404;-1.502;2023-04-24T14:16:54;12.50;;;3.20;;
23866;SDS011;12114;53.404;-1.502;2023-04-24T14:19:38;16.85;;;3.75;;
23866;SDS011;12114;53.404;-1.502;2023-04-24T14:22:22;11.18;;;2.90;;
23866;SDS011;12114;53.404;-1.502;2023-04-24T14:25:06;13.77;;;3.28;;
23866;SDS011;12114;53.404;-1.502;2023-04-24T14:27:50;12.27;;;2.50;;
23866;SDS011;12114;53.404;-1.502;2023-04-24T14:30:34;10.82;;;2.20;;
23866;SDS011;12114;53.404;-1.502;2023-04-24T14:33:18;11.15;;;2.50;;
23866;SDS011;12114;53.404;-1.502;2023-04-24T14:36:02;8.10;;;2.17;;
23866;SDS011;12114;53.404;-1.502;2023-04-24T14:41:32;9.25;;;1.90;;
23866;SDS011;12114;53.404;-1.502;2023-04-24T14:44:19;9.20;;;1.92;;
23866;SDS011;12114;53.404;-1.502;2023-04-24T14:47:03;10.63;;;2.17;;
23866;SDS011;12114;53.404;-1.502;2023-04-24T14:49:47;10.93;;;1.80;;
23866;SDS011;12114;53.404;-1.502;2023-04-24T14:52:31;10.88;;;1.95;;
23866;SDS011;12114;53.404;-1.502;2023-04-24T14:55:15;6.32;;;1.58;;
23866;SDS011;12114;53.404;-1.502;2023-04-24T14:58:00;7.97;;;1.75;;
23866;SDS011;12114;53.404;-1.502;2023-04-24T15:00:44;8.15;;;2.40;;
23866;SDS011;12114;53.404;-1.502;2023-04-24T15:03:27;8.80;;;2.15;;
23866;SDS011;12114;53.404;-1.502;2023-04-24T15:06:13;9.40;;;2.22;;
23866;SDS011;12114;53.404;-1.502;2023-04-24T15:08:57;9.48;;;2.17;;
23866;SDS011;12114;53.404;-1.502;2023-04-24T15:11:40;9.93;;;2.20;;
23866;SDS011;12114;53.404;-1.502;2023-04-24T15:14:24;10.85;;;2.92;;
23866;SDS011;12114;53.404;-1.502;2023-04-24T15:17:08;11.25;;;2.67;;
23866;SDS011;12114;53.404;-1.502;2023-04-24T15:19:52;12.85;;;2.38;;
23866;SDS011;12114;53.404;-1.502;2023-04-24T15:22:36;13.38;;;2.70;;
23866;SDS011;12114;53.404;-1.502;2023-04-24T15:25:20;8.82;;;2.20;;
23866;SDS011;12114;53.404;-1.502;2023-04-24T15:28:04;11.20;;;2.80;;
23866;SDS011;12114;53.404;-1.502;2023-04-24T15:30:51;12.55;;;2.40;;
23866;SDS011;12114;53.404;-1.502;2023-04-24T15:33:35;11.18;;;2.83;;
23866;SDS011;12114;53.404;-1.502;2023-04-24T15:36:19;10.88;;;2.97;;
23866;SDS011;12114;53.404;-1.502;2023-04-24T15:39:04;13.95;;;2.97;;
23866;SDS011;12114;53.404;-1.502;2023-04-24T15:41:48;19.42;;;3.63;;
23866;SDS011;12114;53.404;-1.502;2023-04-24T15:44:34;11.50;;;2.80;;
23866;SDS011;12114;53.404;-1.502;2023-04-24T15:47:18;9.52;;;2.53;;
23866;SDS011;12114;53.404;-1.502;2023-04-24T15:50:03;13.52;;;2.83;;
23866;SDS011;12114;53.404;-1.502;2023-04-24T15:52:47;7.85;;;2.95;;
23866;SDS011;12114;53.404;-1.502;2023-04-24T15:55:31;18.05;;;4.60;;
23866;SDS011;12114;53.404;-1.502;2023-04-24T15:58:16;13.88;;;3.20;;
23866;SDS011;12114;53.404;-1.502;2023-04-24T16:01:00;16.73;;;3.50;;
23866;SDS011;12114;53.404;-1.502;2023-04-24T16:03:44;19.02;;;4.78;;
23866;SDS011;12114;53.404;-1.502;2023-04-24T16:06:28;19.00;;;3.85;;
23866;SDS011;12114;53.404;-1.502;2023-04-24T16:09:12;20.95;;;4.78;;
23866;SDS011;12114;53.404;-1.502;2023-04-24T16:11:57;24.30;;;4.73;;
23866;SDS011;12114;53.404;-1.502;2023-04-24T16:14:41;16.63;;;3.92;;